createdAt,value
2022-10-10T00:02:33.041Z,69.67
2022-10-10T00:06:36.176Z,69.56
2022-10-10T00:10:40.645Z,69.53
2022-10-10T00:14:43.696Z,69.59
2022-10-10T00:18:46.977Z,69.90
2022-10-10T00:22:50.827Z,69.84
2022-10-10T00:26:55.402Z,70.15
2022-10-10T00:30:58.435Z,70.10
2022-10-10T00:35:01.636Z,70.21
2022-10-10T00:39:04.681Z,70.53
2022-10-10T00:43:11.489Z,70.94
2022-10-10T00:47:14.776Z,70.90
2022-10-10T00:51:20.851Z,70.90
2022-10-10T00:55:24.184Z,71.14
2022-10-10T00:59:32.975Z,70.91
2022-10-10T01:03:36.130Z,71.12
2022-10-10T01:07:40.727Z,71.07
2022-10-10T01:11:52.962Z,71.10
2022-10-10T01:16:02.600Z,71.07
2022-10-10T01:20:38.796Z,70.93
2022-10-10T01:24:56.351Z,70.74
2022-10-10T01:29:07.698Z,70.59
2022-10-10T01:33:16.785Z,70.54
2022-10-10T01:37:22.823Z,70.79
2022-10-10T01:41:32.642Z,70.58
2022-10-10T01:45:37.023Z,70.63
2022-10-10T01:49:43.998Z,70.75
2022-10-10T01:53:55.399Z,70.77
2022-10-10T01:58:13.634Z,70.78
2022-10-10T02:02:26.298Z,70.73
2022-10-10T02:06:37.107Z,70.97
2022-10-10T02:10:47.677Z,70.82
2022-10-10T02:14:54.282Z,71.07
2022-10-10T02:19:00.871Z,71.08
2022-10-10T02:23:04.470Z,70.90
2022-10-10T02:27:12.665Z,70.89
2022-10-10T02:31:18.563Z,70.82
2022-10-10T02:35:26.256Z,71.01
2022-10-10T02:39:33.502Z,71.20
2022-10-10T02:43:37.532Z,71.42
2022-10-10T02:47:40.544Z,71.67
2022-10-10T02:51:45.113Z,71.84
2022-10-10T02:55:48.314Z,71.78
2022-10-10T02:59:51.298Z,71.75
2022-10-10T03:03:54.575Z,72.07
2022-10-10T03:07:58.951Z,72.35
2022-10-10T03:12:02.276Z,72.66
2022-10-10T03:16:06.811Z,72.73
2022-10-10T03:20:11.490Z,73.10
2022-10-10T03:24:16.640Z,73.05
2022-10-10T03:28:19.875Z,73.49
2022-10-10T03:32:22.985Z,73.58
2022-10-10T03:36:26.697Z,73.40
2022-10-10T03:40:32.085Z,73.46
2022-10-10T03:44:35.176Z,73.23
2022-10-10T03:48:38.384Z,72.94
2022-10-10T03:52:41.276Z,72.38
2022-10-10T03:56:45.623Z,71.74
2022-10-10T04:00:54.833Z,71.55
2022-10-10T04:04:57.997Z,71.33
2022-10-10T04:09:00.957Z,71.12
2022-10-10T04:13:05.900Z,70.78
2022-10-10T04:17:09.244Z,70.41
2022-10-10T04:21:13.168Z,70.46
2022-10-10T04:25:16.211Z,70.02
2022-10-10T04:29:20.618Z,69.46
2022-10-10T04:33:23.612Z,69.63
2022-10-10T04:37:27.070Z,69.39
2022-10-10T04:41:30.180Z,69.35
2022-10-10T04:45:37.531Z,69.26
2022-10-10T04:49:42.055Z,69.13
2022-10-10T04:53:50.124Z,68.21
2022-10-10T04:57:53.504Z,68.65
2022-10-10T05:02:01.559Z,68.51
2022-10-10T05:06:05.042Z,68.43
2022-10-10T05:10:08.755Z,68.20
2022-10-10T05:14:11.763Z,68.23
2022-10-10T05:18:16.371Z,68.03
2022-10-10T05:22:19.369Z,67.94
2022-10-10T05:26:22.628Z,68.06
2022-10-10T05:30:25.639Z,68.02
2022-10-10T05:34:30.863Z,67.81
2022-10-10T05:38:34.066Z,67.83
2022-10-10T05:42:37.379Z,67.91
2022-10-10T05:46:40.617Z,67.95
2022-10-10T05:50:50.257Z,68.00
2022-10-10T05:54:53.965Z,67.87
2022-10-10T05:58:56.980Z,67.71
2022-10-10T06:03:00.299Z,67.66
2022-10-10T06:07:04.888Z,67.72
2022-10-10T06:11:09.081Z,67.72
2022-10-10T06:15:13.163Z,68.22
2022-10-10T06:19:17.165Z,67.61
2022-10-10T06:23:22.063Z,67.88
2022-10-10T06:27:25.134Z,67.29
2022-10-10T06:31:28.351Z,67.73
2022-10-10T06:35:31.590Z,67.18
2022-10-10T06:39:36.020Z,67.26
2022-10-10T06:43:39.088Z,67.33
2022-10-10T06:47:42.111Z,66.69
2022-10-10T06:51:45.100Z,66.78
2022-10-10T06:55:49.464Z,66.03
2022-10-10T06:59:52.658Z,66.45
2022-10-10T07:03:55.660Z,66.13
2022-10-10T07:07:58.710Z,66.07
2022-10-10T07:12:03.161Z,66.06
2022-10-10T07:16:06.639Z,65.92
2022-10-10T07:20:10.404Z,65.76
2022-10-10T07:24:13.414Z,65.68
2022-10-10T07:28:18.016Z,65.09
2022-10-10T07:32:21.069Z,65.03
2022-10-10T07:36:24.286Z,65.08
2022-10-10T07:40:27.285Z,64.50
2022-10-10T07:44:34.618Z,64.19
2022-10-10T07:48:37.863Z,64.12
2022-10-10T07:52:41.559Z,63.51
2022-10-10T07:56:44.532Z,63.98
2022-10-10T08:00:50.428Z,63.83
2022-10-10T08:04:53.686Z,63.60
2022-10-10T08:08:56.766Z,63.59
2022-10-10T08:12:59.714Z,63.26
2022-10-10T08:17:04.435Z,63.27
2022-10-10T08:21:10.311Z,63.34
2022-10-10T08:25:13.525Z,63.18
2022-10-10T08:29:16.660Z,63.27
2022-10-10T08:33:21.153Z,63.05
2022-10-10T08:37:30.270Z,63.13
2022-10-10T08:41:42.116Z,63.25
2022-10-10T08:45:45.546Z,62.65
2022-10-10T08:49:53.085Z,63.15
2022-10-10T08:54:00.112Z,63.00
2022-10-10T08:58:10.901Z,62.47
2022-10-10T09:02:43.735Z,62.71
2022-10-10T09:07:03.155Z,62.19
2022-10-10T09:11:17.267Z,62.01
2022-10-10T09:15:25.312Z,62.38
2022-10-10T09:19:40.270Z,62.16
2022-10-10T09:23:50.330Z,62.06
2022-10-10T09:28:02.707Z,61.93
2022-10-10T09:32:11.133Z,61.96
2022-10-10T09:36:19.814Z,61.72
2022-10-10T09:40:29.633Z,61.80
2022-10-10T09:44:34.006Z,61.26
2022-10-10T09:48:39.656Z,60.87
2022-10-10T09:52:44.326Z,60.85
2022-10-10T09:56:52.836Z,60.76
2022-10-10T10:00:56.607Z,60.55
2022-10-10T10:05:00.487Z,60.34
2022-10-10T10:09:06.078Z,60.69
2022-10-10T10:13:16.234Z,60.10
2022-10-10T10:17:24.331Z,59.97
2022-10-10T10:21:28.889Z,59.80
2022-10-10T10:25:37.069Z,59.43
2022-10-10T10:29:47.930Z,58.95
2022-10-10T10:34:01.497Z,58.79
2022-10-10T10:38:18.408Z,58.08
2022-10-10T10:42:40.402Z,58.45
2022-10-10T10:46:55.486Z,58.05
2022-10-10T10:51:06.291Z,57.68
2022-10-10T10:55:27.180Z,57.46
2022-10-10T11:00:25.976Z,57.22
2022-10-10T11:05:23.666Z,56.61
2022-10-10T11:08:59.132Z,55.96
2022-10-10T11:13:08.092Z,56.33
2022-10-10T11:17:15.871Z,55.80
2022-10-10T11:21:23.887Z,56.01
2022-10-10T11:25:31.947Z,55.61
2022-10-10T11:29:48.449Z,55.89
2022-10-10T11:33:57.413Z,55.98
2022-10-10T11:38:12.122Z,56.15
2022-10-10T11:42:20.003Z,56.29
2022-10-10T11:46:30.196Z,56.29
2022-10-10T11:50:37.321Z,56.73
2022-10-10T11:54:47.335Z,56.59
2022-10-10T11:58:58.734Z,56.60
2022-10-10T12:03:02.024Z,56.75
2022-10-10T12:07:08.794Z,57.13
2022-10-10T12:11:22.565Z,56.02
2022-10-10T12:15:30.335Z,56.34
2022-10-10T12:19:33.453Z,56.13
2022-10-10T12:23:37.311Z,56.49
2022-10-10T12:27:49.258Z,56.62
2022-10-10T12:32:24.295Z,57.13
2022-10-10T12:37:12.409Z,57.17
2022-10-10T12:41:16.673Z,57.26
2022-10-10T12:45:57.580Z,57.04
2022-10-10T12:50:05.173Z,57.75
2022-10-10T12:54:20.342Z,57.95
2022-10-10T12:58:27.994Z,57.76
2022-10-10T13:02:31.457Z,57.62
2022-10-10T13:06:39.638Z,57.92
2022-10-10T13:10:43.168Z,58.42
2022-10-10T13:14:47.147Z,58.35
2022-10-10T13:18:52.857Z,58.32
2022-10-10T13:22:58.976Z,58.09
2022-10-10T13:27:02.559Z,58.22
2022-10-10T13:31:14.020Z,58.01
2022-10-10T13:35:21.138Z,57.51
2022-10-10T13:39:26.924Z,57.38
2022-10-10T13:43:31.576Z,57.43
2022-10-10T13:47:53.730Z,57.36
2022-10-10T13:52:07.021Z,57.22
2022-10-10T13:56:17.026Z,57.34
2022-10-10T14:00:23.709Z,56.95
2022-10-10T14:04:31.311Z,56.87
2022-10-10T14:08:35.165Z,56.37
2022-10-10T14:12:44.159Z,56.60
2022-10-10T14:16:57.605Z,56.50
2022-10-10T14:21:01.270Z,56.55
2022-10-10T14:25:04.907Z,56.49
2022-10-10T14:29:12.919Z,56.05
2022-10-10T14:33:17.876Z,56.16
2022-10-10T14:37:24.479Z,56.48
2022-10-10T14:41:27.535Z,56.29
2022-10-10T14:45:31.933Z,56.29
2022-10-10T14:49:34.979Z,56.10
2022-10-10T14:53:38.279Z,56.58
2022-10-10T14:57:41.731Z,56.59
2022-10-10T15:01:46.562Z,56.79
2022-10-10T15:05:50.667Z,57.22
2022-10-10T15:14:16.940Z,57.51
2022-10-10T15:18:52.086Z,57.59
2022-10-10T15:22:46.007Z,57.33
2022-10-10T15:26:49.057Z,57.49
2022-10-10T15:30:52.796Z,57.62
2022-10-10T15:34:57.250Z,57.50
2022-10-10T15:39:00.551Z,57.70
2022-10-10T15:43:05.211Z,57.80
2022-10-10T15:47:08.300Z,58.08
2022-10-10T15:51:13.348Z,58.29
2022-10-10T15:55:17.091Z,58.26
2022-10-10T16:03:24.720Z,58.84
2022-10-10T16:07:31.342Z,59.10
2022-10-10T16:11:36.981Z,59.18
2022-10-10T16:15:39.965Z,59.29
2022-10-10T16:19:43.172Z,59.62
2022-10-10T16:23:52.141Z,59.71
2022-10-10T16:27:57.458Z,59.70
2022-10-10T16:32:00.656Z,59.62
2022-10-10T16:36:09.424Z,59.95
2022-10-10T16:40:14.464Z,59.91
2022-10-10T16:44:18.595Z,59.81
2022-10-10T16:48:21.858Z,60.25
2022-10-10T16:52:25.026Z,60.66
2022-10-10T16:56:30.953Z,60.76
2022-10-10T17:00:34.517Z,60.72
2022-10-10T17:04:37.788Z,61.06
2022-10-10T17:08:41.371Z,61.33
2022-10-10T17:12:46.801Z,61.42
2022-10-10T17:21:15.322Z,61.63
2022-10-10T17:25:18.746Z,61.92
2022-10-10T17:29:23.757Z,61.66
2022-10-10T17:33:26.835Z,61.95
2022-10-10T17:37:29.918Z,62.01
2022-10-10T17:41:33.675Z,61.79
2022-10-10T17:45:39.783Z,61.83
2022-10-10T17:49:46.540Z,61.97
2022-10-10T17:53:50.531Z,61.98
2022-10-10T17:57:53.772Z,61.80
2022-10-10T18:01:58.430Z,62.27
2022-10-10T18:06:06.846Z,62.39
2022-10-10T18:10:10.826Z,62.21
2022-10-10T18:14:13.966Z,62.49
2022-10-10T18:18:19.083Z,62.47
2022-10-10T18:22:22.223Z,62.49
2022-10-10T18:26:29.583Z,62.22
2022-10-10T18:30:34.344Z,62.57
2022-10-10T18:34:38.968Z,62.56
2022-10-10T18:38:42.889Z,62.73
2022-10-10T18:42:46.043Z,62.80
2022-10-10T18:46:50.658Z,63.07
2022-10-10T18:51:01.677Z,62.97
2022-10-10T18:55:05.373Z,62.97
2022-10-10T18:59:12.615Z,62.88
2022-10-10T19:03:16.076Z,63.23
2022-10-10T19:07:20.902Z,63.38
2022-10-10T19:11:26.096Z,63.35
2022-10-10T19:15:29.148Z,63.35
2022-10-10T19:19:32.341Z,63.58
2022-10-10T19:23:37.954Z,63.54
2022-10-10T19:27:41.001Z,63.74
2022-10-10T19:31:46.173Z,63.70
2022-10-10T19:35:52.430Z,63.77
2022-10-10T19:39:57.102Z,63.97
2022-10-10T19:44:04.734Z,63.94
2022-10-10T19:48:07.989Z,64.39
2022-10-10T19:52:11.289Z,64.34
2022-10-10T19:56:20.436Z,64.25
2022-10-10T20:00:23.460Z,64.29
2022-10-10T20:04:26.644Z,64.53
2022-10-10T20:08:30.114Z,64.71
2022-10-10T20:12:34.633Z,64.97
2022-10-10T20:16:37.772Z,65.22
2022-10-10T20:20:41.980Z,65.21
2022-10-10T20:24:45.085Z,65.72
2022-10-10T20:28:50.655Z,65.75
2022-10-10T20:32:55.961Z,66.19
2022-10-10T20:37:00.138Z,66.28
2022-10-10T20:41:06.887Z,66.40
2022-10-10T20:45:11.755Z,66.72
2022-10-10T20:49:17.398Z,66.62
2022-10-10T20:53:23.708Z,66.88
2022-10-10T20:57:27.167Z,67.02
2022-10-10T21:01:31.833Z,67.01
2022-10-10T21:05:34.868Z,67.03
2022-10-10T21:09:37.978Z,66.97
2022-10-10T21:13:43.985Z,67.15
2022-10-10T21:17:50.875Z,67.11
2022-10-10T21:21:53.850Z,67.28
2022-10-10T21:25:57.552Z,67.33
2022-10-10T21:30:01.091Z,67.86
2022-10-10T21:34:08.299Z,67.76
2022-10-10T21:38:11.379Z,68.08
2022-10-10T21:42:14.331Z,68.14
2022-10-10T21:46:19.290Z,68.30
2022-10-10T21:50:23.828Z,68.69
2022-10-10T21:54:27.174Z,68.63
2022-10-10T21:58:30.508Z,68.37
2022-10-10T22:02:33.592Z,68.61
2022-10-10T22:06:38.424Z,68.72
2022-10-10T22:10:42.045Z,68.62
2022-10-10T22:14:45.100Z,68.53
2022-10-10T22:18:48.246Z,68.53
2022-10-10T22:22:52.662Z,68.66
2022-10-10T22:26:55.893Z,68.62
2022-10-10T22:30:59.027Z,69.02
2022-10-10T22:35:02.438Z,68.94
2022-10-10T22:39:10.953Z,69.08
2022-10-10T22:43:14.174Z,69.05
2022-10-10T22:47:17.369Z,69.04
2022-10-10T22:51:20.875Z,69.03
2022-10-10T22:55:25.550Z,69.45
2022-10-10T22:59:28.987Z,69.28
2022-10-10T23:03:31.993Z,69.03
2022-10-10T23:07:35.547Z,69.31
2022-10-10T23:11:40.067Z,69.26
2022-10-10T23:15:43.273Z,69.48
2022-10-10T23:19:46.273Z,69.41
2022-10-10T23:23:49.308Z,69.81
2022-10-10T23:27:53.758Z,69.91
2022-10-10T23:31:57.330Z,69.89
2022-10-10T23:36:02.490Z,69.93
2022-10-10T23:40:07.402Z,70.18
2022-10-10T23:44:11.785Z,70.51
2022-10-10T23:48:15.126Z,70.57
2022-10-10T23:52:18.298Z,70.83
2022-10-10T23:56:21.531Z,71.36
